Nearby METAR Reports

 

EGTE - Exeter Airport, United Kingdom
Distance from station: S 19km
Updated: 21/07/2019 19:50
Few Clouds
Few Clouds
 Wind from SW
Wind: SW 19 km/h
Temperature: 19°C
Dew Point: 14°C
Humidity: 73%
Barometer: 1021 hPa
Clouds: Few Clouds
Visibility: 10 km
Cloud details: Few Clouds 762 m
2019/07/21 18:50 EGTE 211850Z 22010KT 9999 FEW025 19/14 Q1021
EGDY - Yeovilton (navy), United Kingdom
Distance from station: ENE 55km
Updated: 21/07/2019 18:50
Clear
Clear
 Wind from S
Wind: S 28 km/h
Temperature: 19°C
Dew Point: 15°C
Humidity: 78%
Barometer: 1020 hPa
Clouds: Clear
Visibility: 10 km
2019/07/21 17:50 EGDY 211750Z AUTO 19015KT 9999 NCD 19/15 Q1020
 
EGFF - Cardiff-Wales Ar, United Kingdom
Distance from station: N 56km
Updated: 21/07/2019 19:50
Mostly cloudy
Mostly cloudy
 Wind from W
Wind: W 7 km/h
Temperature: 20°C
Dew Point: 15°C
Humidity: 73%
Barometer: 1020 hPa
Clouds: Mostly cloudy
Visibility: 10 km
Cloud details: Mostly cloudy 1158 m
2019/07/21 18:50 EGFF 211850Z AUTO 28004KT 9999 BKN038 20/15 Q1020
EGDX - St Athan Raf, United Kingdom
Distance from station: N 58km
Updated: 01/04/2019 13:50
NOT Current
Clear
Clear
 Wind from E
Wind: E 15 km/h
Temperature: 11°C
Dew Point: 5°C
Humidity: 67%
Barometer: 1019 hPa
Clouds: Clear
Visibility: 10 km
2019/04/01 12:50 EGDX 011250Z AUTO 10008KT 9999 NCD 11/05 Q1019
 
EGGD - Bristol/Lulsgate, United Kingdom
Distance from station: NE 71km
Updated: 21/07/2019 19:50
Clear
Clear
 Wind from SSW
Wind: SSW 19 km/h
Temperature: 19°C
Dew Point: 15°C
Humidity: 78%
Barometer: 1020 hPa
Clouds: Clear
Visibility: 10 km
2019/07/21 18:50 EGGD 211850Z AUTO 20010KT 9999 NCD 19/15 Q1020